Time;durP1;ratioP1;P1;durP2;ratioP2;P2;SDS_P1;SDS_P2;PMS_P1;PMS_P2;Temp;Humidity;BMP_temperature;BMP_pressure;BME280_temperature;BME280_humidity;BME280_pressure;Samples;Min_cycle;Max_cycle;Signal;HPM_P1;HPM_P2
2022/11/08 00:01:44;;;;;;;7.63;3.83;;;11.20;99.90;;;;;;5015971;28;20518;-87
2022/11/08 00:04:15;;;;;;;11.73;4.17;;;11.20;99.90;;;;;;5014649;28;20438;-87
2022/11/08 00:14:57;;;;;;;3.77;2.70;;;11.10;99.90;;;;;;5005763;28;20843;-88
2022/11/08 00:17:26;;;;;;;7.10;3.30;;;11.10;99.90;;;;;;5007731;28;20566;-88
2022/11/08 00:19:54;;;;;;;5.30;3.60;;;10.90;99.90;;;;;;5041521;28;20480;-88
2022/11/08 00:22:21;;;;;;;3.90;3.40;;;;;;;;;;5066696;28;20433;-88
2022/11/08 00:24:48;;;;;;;4.63;3.60;;;11.00;99.90;;;;;;5059862;28;20421;-88
2022/11/08 00:27:17;;;;;;;8.53;3.70;;;11.00;99.90;;;;;;5059767;28;20821;-87
2022/11/08 00:29:44;;;;;;;7.63;3.17;;;10.90;99.90;;;;;;5059645;28;20450;-87
2022/11/08 00:32:13;;;;;;;5.93;3.63;;;10.90;99.90;;;;;;5058973;28;20460;-87
2022/11/08 00:34:40;;;;;;;11.93;4.47;;;10.80;99.90;;;;;;5060441;28;20445;-88
2022/11/08 00:37:08;;;;;;;8.70;4.47;;;10.90;99.90;;;;;;5059679;28;20474;-88
2022/11/08 00:39:35;;;;;;;5.10;3.97;;;10.80;99.90;;;;;;5059152;28;20437;-87
2022/11/08 00:42:02;;;;;;;4.07;3.60;;;;;;;;;;5059806;28;20461;-87
2022/11/08 00:44:29;;;;;;;6.27;4.00;;;11.10;99.90;;;;;;5060002;28;20424;-86
2022/11/08 00:46:57;;;;;;;8.17;4.10;;;10.70;99.90;;;;;;5070779;28;20446;-89
2022/11/08 00:49:24;;;;;;;5.30;4.77;;;10.70;99.90;;;;;;5074889;28;20426;-88
2022/11/08 00:51:51;;;;;;;5.80;3.77;;;10.70;99.90;;;;;;5073393;28;20437;-91
2022/11/08 00:54:20;;;;;;;7.83;3.77;;;10.70;99.90;;;;;;5077392;28;20460;-88
2022/11/08 00:56:48;;;;;;;6.10;4.00;;;10.60;99.90;;;;;;5076953;28;20426;-87
2022/11/08 00:59:17;;;;;;;4.70;3.30;;;10.70;99.90;;;;;;5076549;28;20496;-87
2022/11/08 01:01:45;;;;;;;5.50;3.23;;;10.60;99.90;;;;;;5077325;28;20450;-87
2022/11/08 01:04:13;;;;;;;6.40;4.00;;;10.60;99.90;;;;;;5074403;28;20446;-87
2022/11/08 01:06:40;;;;;;;11.53;4.13;;;;;;;;;;5070051;28;20453;-87
2022/11/08 01:09:08;;;;;;;13.20;4.37;;;10.60;99.90;;;;;;5065488;28;20453;-88
2022/11/08 01:11:38;;;;;;;6.07;3.70;;;10.40;99.90;;;;;;5065273;28;20484;-88
2022/11/08 01:14:05;;;;;;;4.40;4.00;;;10.60;99.90;;;;;;5068512;28;20430;-88
2022/11/08 01:16:34;;;;;;;6.77;5.97;;;10.50;99.90;;;;;;5067026;28;20465;-87
2022/11/08 01:19:02;;;;;;;9.10;4.10;;;10.50;99.90;;;;;;5078079;28;20412;-89
2022/11/08 01:21:29;;;;;;;6.63;4.00;;;10.80;99.90;;;;;;5065668;28;20472;-89
2022/11/08 01:23:57;;;;;;;6.00;3.70;;;10.50;99.90;;;;;;5066316;28;20523;-91
2022/11/08 01:26:26;;;;;;;6.83;4.27;;;10.50;99.90;;;;;;5080221;28;20460;-88
2022/11/08 01:28:55;;;;;;;7.97;3.57;;;10.50;99.90;;;;;;5077836;28;20437;-87
2022/11/08 01:31:24;;;;;;;3.87;3.53;;;10.40;99.90;;;;;;5075415;28;20456;-88
2022/11/08 01:33:51;;;;;;;5.37;3.40;;;10.20;99.90;;;;;;5076895;28;20412;-89
2022/11/08 01:36:20;;;;;;;7.80;3.97;;;10.40;99.90;;;;;;5074199;28;20405;-88
2022/11/08 01:38:47;;;;;;;5.00;3.63;;;10.40;99.90;;;;;;5070871;28;20412;-88
2022/11/08 01:41:16;;;;;;;5.47;4.10;;;10.30;99.90;;;;;;5068447;28;20477;-88
2022/11/08 01:43:44;;;;;;;13.30;3.97;;;10.00;99.90;;;;;;5070117;28;20420;-88
2022/11/08 01:46:46;;;;;;;6.33;4.10;;;10.20;99.90;;;;;;5069458;28;20461;-88
2022/11/08 01:49:34;;;;;;;5.10;3.43;;;10.20;99.90;;;;;;5077964;28;20429;-91
2022/11/08 01:52:16;;;;;;;5.03;4.13;;;10.30;99.90;;;;;;5081188;28;20491;-91
2022/11/08 01:54:48;;;;;;;6.63;4.23;;;10.10;99.90;;;;;;5079838;28;20481;-89
2022/11/08 01:57:17;;;;;;;4.73;4.20;;;10.30;99.90;;;;;;5073339;28;20393;-87
2022/11/08 01:59:47;;;;;;;5.77;3.97;;;10.40;99.90;;;;;;5072590;28;20422;-87
2022/11/08 02:02:15;;;;;;;5.10;4.20;;;10.40;99.90;;;;;;5071463;28;20462;-88
2022/11/08 02:04:43;;;;;;;7.93;3.93;;;10.40;99.90;;;;;;5073427;28;20412;-88
2022/11/08 02:07:12;;;;;;;4.27;3.80;;;10.50;99.90;;;;;;5072695;28;20514;-87
2022/11/08 02:09:41;;;;;;;7.20;4.17;;;10.50;99.90;;;;;;5072498;28;20468;-87
2022/11/08 02:12:09;;;;;;;7.63;4.70;;;10.50;99.90;;;;;;5065973;28;20809;-86
2022/11/08 02:14:37;;;;;;;6.57;4.07;;;10.50;99.90;;;;;;5063125;28;20449;-86
2022/11/08 02:17:04;;;;;;;5.00;3.70;;;10.60;99.90;;;;;;5065666;28;20422;-86
2022/11/08 02:19:39;;;;;;;8.23;4.00;;;10.60;99.90;;;;;;5067981;28;20445;-87
2022/11/08 02:22:15;;;;;;;7.00;4.30;;;10.70;99.90;;;;;;5064325;28;20443;-88
2022/11/08 02:24:43;;;;;;;5.30;3.80;;;10.70;99.90;;;;;;5061957;28;20896;-87
2022/11/08 02:27:11;;;;;;;5.50;3.67;;;10.60;99.90;;;;;;5060602;28;20452;-87
2022/11/08 02:29:38;;;;;;;3.73;3.43;;;10.50;99.90;;;;;;5060359;28;20446;-86
2022/11/08 02:32:05;;;;;;;4.30;3.70;;;10.50;99.90;;;;;;5061369;28;20873;-87
2022/11/08 02:34:36;;;;;;;3.50;3.20;;;10.60;99.90;;;;;;5059921;28;20977;-86
2022/11/08 02:37:04;;;;;;;5.77;4.23;;;10.80;99.90;;;;;;5061126;28;20434;-88
2022/11/08 02:39:31;;;;;;;5.53;3.90;;;10.50;99.90;;;;;;5060608;28;20465;-87
2022/11/08 02:42:00;;;;;;;5.20;3.60;;;10.50;99.90;;;;;;5060775;28;20482;-88
2022/11/08 02:44:27;;;;;;;6.10;3.70;;;10.70;99.90;;;;;;5059603;28;20438;-88
2022/11/08 02:46:54;;;;;;;8.90;4.20;;;10.40;99.90;;;;;;5059532;28;20457;-87
2022/11/08 02:49:21;;;;;;;4.60;3.70;;;10.40;99.90;;;;;;5060552;28;20460;-87
2022/11/08 02:51:48;;;;;;;4.37;3.97;;;10.40;99.90;;;;;;5060223;28;20491;-87
2022/11/08 02:54:14;;;;;;;6.77;3.87;;;10.40;99.90;;;;;;5060096;28;20476;-89
2022/11/08 02:56:41;;;;;;;7.43;3.87;;;10.40;99.90;;;;;;5061076;28;20465;-88
2022/11/08 02:59:09;;;;;;;6.33;4.40;;;10.40;99.90;;;;;;5062623;28;20450;-88
2022/11/08 03:01:37;;;;;;;7.33;4.23;;;;;;;;;;5061005;28;20926;-88
2022/11/08 03:04:04;;;;;;;6.23;3.43;;;10.40;99.90;;;;;;5063242;28;20412;-88
2022/11/08 03:06:31;;;;;;;6.00;4.00;;;;;;;;;;5076655;28;20460;-88
2022/11/08 03:08:58;;;;;;;8.80;4.20;;;;;;;;;;5076934;28;20484;-87
2022/11/08 03:11:25;;;;;;;5.00;3.70;;;;;;;;;;5076031;28;20476;-87
2022/11/08 03:13:52;;;;;;;5.60;3.70;;;;;;;;;;5077458;28;20510;-87
2022/11/08 03:16:21;;;;;;;5.43;3.57;;;10.20;99.90;;;;;;5075890;28;20434;-88
2022/11/08 03:18:48;;;;;;;9.03;3.97;;;10.20;99.90;;;;;;5062949;28;20453;-87
2022/11/08 03:21:14;;;;;;;4.20;3.70;;;10.20;99.90;;;;;;5060343;28;20553;-88
2022/11/08 03:23:42;;;;;;;12.10;4.43;;;;;;;;;;5059146;28;20976;-87
2022/11/08 03:26:08;;;;;;;9.13;4.60;;;9.90;99.90;;;;;;5061237;28;20458;-88
2022/11/08 03:28:35;;;;;;;6.30;4.43;;;10.20;99.90;;;;;;5058803;28;20457;-88
2022/11/08 03:31:02;;;;;;;13.33;3.70;;;10.20;99.90;;;;;;5063214;28;20473;-88
2022/11/08 03:33:30;;;;;;;5.03;3.60;;;10.20;99.90;;;;;;5071002;28;20481;-87
2022/11/08 03:35:57;;;;;;;6.90;3.63;;;10.20;99.90;;;;;;5075151;28;20428;-87
2022/11/08 03:38:24;;;;;;;5.90;4.07;;;;;;;;;;5070846;28;20449;-87
2022/11/08 03:40:50;;;;;;;5.60;3.40;;;10.20;99.90;;;;;;5070126;28;20442;-87
2022/11/08 03:43:17;;;;;;;7.07;4.70;;;10.60;99.90;;;;;;5079112;28;20441;-85
2022/11/08 03:45:45;;;;;;;6.57;3.83;;;10.40;99.90;;;;;;5078692;28;20434;-86
2022/11/08 03:48:12;;;;;;;4.80;3.00;;;;;;;;;;5069022;28;20460;-87
2022/11/08 03:50:42;;;;;;;5.10;3.13;;;10.40;99.90;;;;;;5077207;28;20463;-86
2022/11/08 03:53:10;;;;;;;5.93;4.10;;;;;;;;;;5075034;28;20520;-87
2022/11/08 03:55:37;;;;;;;6.73;3.27;;;;;;;;;;5075558;28;20448;-87
2022/11/08 03:58:03;;;;;;;7.70;4.10;;;10.20;99.90;;;;;;5066876;28;20517;-86
2022/11/08 04:00:30;;;;;;;6.40;3.90;;;;;;;;;;5061308;28;20477;-87
2022/11/08 04:03:02;;;;;;;8.70;4.30;;;10.10;99.90;;;;;;5064822;28;20819;-87
2022/11/08 04:05:31;;;;;;;7.90;4.37;;;10.40;99.90;;;;;;5070737;28;20472;-86
2022/11/08 04:07:59;;;;;;;5.73;4.20;;;10.00;99.90;;;;;;5061229;28;20452;-87
2022/11/08 04:10:26;;;;;;;4.70;4.00;;;;;;;;;;5059790;28;20446;-86
2022/11/08 04:15:37;;;;;;;6.80;4.23;;;9.60;99.90;;;;;;5059499;28;20401;-87
2022/11/08 04:23:36;;;;;;;6.17;4.57;;;9.70;99.90;;;;;;5060317;28;20467;-87
2022/11/08 04:26:05;;;;;;;6.00;4.00;;;9.40;99.90;;;;;;5060882;28;20453;-87
2022/11/08 04:28:33;;;;;;;8.60;3.97;;;9.70;99.90;;;;;;5070332;28;20422;-85
2022/11/08 04:31:03;;;;;;;10.40;5.60;;;10.00;99.90;;;;;;5077711;28;20464;-87
2022/11/08 04:33:30;;;;;;;7.43;4.20;;;9.90;99.90;;;;;;5078325;28;20519;-88
2022/11/08 04:36:01;;;;;;;6.50;3.80;;;9.60;99.90;;;;;;5068288;28;20438;-88
2022/11/08 04:38:29;;;;;;;8.90;5.27;;;9.60;99.90;;;;;;5064598;28;20507;-88
2022/11/08 04:41:01;;;;;;;5.60;4.83;;;9.60;99.90;;;;;;5066105;28;20508;-89
2022/11/08 04:43:28;;;;;;;10.63;4.80;;;9.50;99.90;;;;;;5080678;28;20414;-88
2022/11/08 04:45:59;;;;;;;5.57;5.03;;;9.50;99.90;;;;;;5082611;28;20417;-87
2022/11/08 04:48:26;;;;;;;12.20;4.97;;;9.50;99.90;;;;;;5082300;28;20412;-87
2022/11/08 04:50:52;;;;;;;6.00;3.90;;;9.40;99.90;;;;;;5082383;28;20513;-87
2022/11/08 04:53:22;;;;;;;6.43;4.03;;;;;;;;;;5082361;28;20508;-88
2022/11/08 04:55:49;;;;;;;6.87;4.23;;;;;;;;;;5082260;28;20468;-86
2022/11/08 04:58:18;;;;;;;6.50;4.50;;;;;;;;;;5082212;28;20440;-86
2022/11/08 05:00:45;;;;;;;7.07;4.70;;;;;;;;;;5078005;28;20485;-88
2022/11/08 05:03:12;;;;;;;6.87;4.50;;;9.50;99.90;;;;;;5067691;28;20449;-88
2022/11/08 05:05:38;;;;;;;6.13;3.80;;;9.80;99.90;;;;;;5064673;28;20908;-88
2022/11/08 05:08:06;;;;;;;5.37;4.10;;;9.60;99.90;;;;;;5063818;28;20416;-88
2022/11/08 05:10:32;;;;;;;5.77;5.10;;;9.40;99.90;;;;;;5062973;28;20449;-88
2022/11/08 05:12:59;;;;;;;8.53;4.80;;;9.50;99.90;;;;;;5062190;28;20464;-89
2022/11/08 05:15:27;;;;;;;7.00;4.70;;;9.40;99.90;;;;;;5065542;28;20871;-88
2022/11/08 05:17:54;;;;;;;8.83;4.83;;;;;;;;;;5064373;28;20831;-89
2022/11/08 05:23:24;;;;;;;6.00;4.83;;;9.40;99.90;;;;;;5082052;28;20409;-85
2022/11/08 05:25:51;;;;;;;17.67;5.17;;;9.50;99.90;;;;;;5081913;28;20445;-85
2022/11/08 05:28:19;;;;;;;9.37;4.93;;;9.40;99.90;;;;;;5078999;28;20472;-87
2022/11/08 05:30:52;;;;;;;5.37;4.87;;;9.40;99.90;;;;;;5074873;28;20444;-88
2022/11/08 05:33:19;;;;;;;10.87;5.00;;;9.40;99.90;;;;;;5069764;28;20474;-87
2022/11/08 05:35:46;;;;;;;8.03;5.30;;;;;;;;;;5067850;28;20441;-87
2022/11/08 05:38:13;;;;;;;5.40;4.33;;;9.50;99.90;;;;;;5071983;28;20449;-87
2022/11/08 05:40:40;;;;;;;10.43;5.00;;;;;;;;;;5080997;28;21914;-86
2022/11/08 05:43:07;;;;;;;5.10;4.70;;;;;;;;;;5080490;28;20480;-86
2022/11/08 05:45:34;;;;;;;14.33;5.20;;;;;;;;;;5080611;28;20428;-88
2022/11/08 05:48:03;;;;;;;6.73;4.30;;;;;;;;;;5080410;28;20434;-87
2022/11/08 05:50:31;;;;;;;7.27;4.23;;;;;;;;;;5079695;28;20405;-86
2022/11/08 05:52:57;;;;;;;7.00;5.70;;;9.30;99.90;;;;;;5080867;28;20439;-86
2022/11/08 05:55:24;;;;;;;8.40;4.13;;;;;;;;;;5080704;28;20423;-87
2022/11/08 05:57:52;;;;;;;6.20;4.80;;;;;;;;;;5078594;28;20560;-88
2022/11/08 06:07:32;;;;;;;6.33;4.43;;;9.60;99.90;;;;;;5064612;28;20352;-88
2022/11/08 06:09:59;;;;;;;6.43;4.50;;;9.40;99.90;;;;;;5064191;28;20449;-88
2022/11/08 06:12:26;;;;;;;6.00;4.23;;;9.40;99.90;;;;;;5061663;28;20481;-89
2022/11/08 06:14:52;;;;;;;7.37;5.90;;;9.20;99.90;;;;;;5063181;28;20630;-89
2022/11/08 06:17:20;;;;;;;6.10;4.23;;;;;;;;;;5062652;28;20945;-88
2022/11/08 06:19:47;;;;;;;5.83;4.63;;;;;;;;;;5073693;28;20484;-87
2022/11/08 06:22:17;;;;;;;5.50;4.37;;;;;;;;;;5073881;28;20472;-87
2022/11/08 06:25:00;;;;;;;6.40;4.33;;;;;;;;;;5065495;28;20457;-88
2022/11/08 06:30:52;;;;;;;9.30;4.50;;;;;;;;;;5024215;28;20473;-89
2022/11/08 06:33:29;;;;;;;11.00;4.67;;;;;;;;;;5064199;28;20585;-87
2022/11/08 06:35:59;;;;;;;6.23;4.90;;;;;;;;;;5064274;28;20408;-88
2022/11/08 06:38:29;;;;;;;6.33;4.90;;;;;;;;;;5065074;28;20457;-87
2022/11/08 06:41:01;;;;;;;5.97;5.03;;;;;;;;;;5064459;28;20444;-88
2022/11/08 06:43:36;;;;;;;10.10;5.30;;;;;;;;;;5065186;28;20439;-87
2022/11/08 06:46:06;;;;;;;7.47;5.20;;;;;;;;;;5065892;28;20434;-88
2022/11/08 06:48:33;;;;;;;11.37;6.07;;;;;;;;;;5065810;28;20523;-88
2022/11/08 06:51:04;;;;;;;11.20;5.10;;;;;;;;;;5064678;28;20472;-87
2022/11/08 06:53:31;;;;;;;12.43;7.60;;;;;;;;;;5064153;28;20490;-87
2022/11/08 06:56:02;;;;;;;11.77;5.00;;;9.50;99.90;;;;;;5064511;28;20431;-86
2022/11/08 06:58:30;;;;;;;10.27;7.50;;;;;;;;;;5063962;28;20417;-87
2022/11/08 07:00:57;;;;;;;8.87;6.77;;;;;;;;;;5063883;28;20464;-87
2022/11/08 07:03:25;;;;;;;22.40;9.50;;;;;;;;;;5066448;28;20434;-86
2022/11/08 07:05:52;;;;;;;9.97;6.07;;;;;;;;;;5062625;28;20420;-87
2022/11/08 07:08:19;;;;;;;8.03;5.37;;;;;;;;;;5067692;28;20430;-87
2022/11/08 07:10:46;;;;;;;9.57;5.20;;;;;;;;;;5069452;28;20469;-88
2022/11/08 07:13:15;;;;;;;10.63;5.10;;;;;;;;;;5064286;28;20456;-87
2022/11/08 07:15:42;;;;;;;9.20;4.83;;;;;;;;;;5067643;28;20452;-88
2022/11/08 07:18:11;;;;;;;7.30;4.80;;;9.60;99.90;;;;;;5074849;28;20449;-87
2022/11/08 07:20:41;;;;;;;10.30;5.90;;;9.60;99.90;;;;;;5079150;28;20476;-84
2022/11/08 07:23:08;;;;;;;6.17;5.63;;;;;;;;;;5077962;28;20480;-88
2022/11/08 07:25:35;;;;;;;8.63;5.00;;;;;;;;;;5074772;28;20431;-87
2022/11/08 07:28:04;;;;;;;9.53;6.17;;;9.70;99.90;;;;;;5073506;28;20447;-87
2022/11/08 07:30:34;;;;;;;11.37;6.43;;;9.70;99.90;;;;;;5073591;28;20468;-87
2022/11/08 07:33:03;;;;;;;7.43;4.90;;;;;;;;;;5069388;28;20460;-87
2022/11/08 07:35:30;;;;;;;7.00;4.70;;;;;;;;;;5065181;28;20454;-87
2022/11/08 07:37:57;;;;;;;7.23;4.50;;;;;;;;;;5063610;28;20446;-87
2022/11/08 07:40:25;;;;;;;8.40;6.13;;;;;;;;;;5064899;28;20442;-86
2022/11/08 07:42:59;;;;;;;9.93;5.07;;;;;;;;;;5064185;28;20509;-87
2022/11/08 07:45:27;;;;;;;6.47;5.60;;;9.90;99.90;;;;;;5065804;28;20449;-86
2022/11/08 07:47:59;;;;;;;11.00;6.50;;;9.80;99.90;;;;;;5064826;28;20495;-86
2022/11/08 07:50:26;;;;;;;10.60;5.17;;;10.20;99.90;;;;;;5071877;28;20430;-86
2022/11/08 07:52:53;;;;;;;9.53;5.57;;;10.00;99.90;;;;;;5073284;28;20450;-85
2022/11/08 07:55:20;;;;;;;9.30;5.17;;;;;;;;;;5070033;28;20453;-87
2022/11/08 07:57:47;;;;;;;10.00;5.50;;;10.10;99.90;;;;;;5067853;28;20441;-86
2022/11/08 08:00:14;;;;;;;5.70;4.13;;;10.10;99.90;;;;;;5065666;28;20533;-87
2022/11/08 08:02:41;;;;;;;5.40;4.23;;;10.20;99.90;;;;;;5064337;28;20465;-87
2022/11/08 08:05:10;;;;;;;8.67;5.40;;;10.20;99.90;;;;;;5064573;28;20465;-86
2022/11/08 08:07:37;;;;;;;7.40;4.20;;;10.20;99.90;;;;;;5062811;28;20415;-86
2022/11/08 08:10:06;;;;;;;7.50;5.17;;;10.50;99.90;;;;;;5063274;28;20478;-87
2022/11/08 08:12:33;;;;;;;12.03;4.77;;;10.60;99.90;;;;;;5064583;28;20465;-87
2022/11/08 08:15:03;;;;;;;7.03;4.17;;;10.80;99.90;;;;;;5063512;28;20483;-87
2022/11/08 08:17:31;;;;;;;8.23;4.83;;;10.60;99.90;;;;;;5065280;28;20817;-86
2022/11/08 08:19:58;;;;;;;8.07;4.53;;;10.50;99.90;;;;;;5065556;28;20416;-85
2022/11/08 08:22:26;;;;;;;6.70;3.70;;;10.40;99.90;;;;;;5065491;28;20452;-87
2022/11/08 08:24:53;;;;;;;5.37;3.50;;;10.60;99.90;;;;;;5064868;28;20429;-87
2022/11/08 08:27:19;;;;;;;4.50;4.10;;;10.60;99.90;;;;;;5068045;28;20505;-86
2022/11/08 08:29:46;;;;;;;7.00;5.00;;;10.70;99.90;;;;;;5073443;28;20472;-85
2022/11/08 08:32:14;;;;;;;7.00;4.10;;;;;;;;;;5073187;28;20461;-84
2022/11/08 08:34:41;;;;;;;9.00;5.00;;;;;;;;;;5067378;28;20485;-86
2022/11/08 08:37:08;;;;;;;5.10;3.80;;;;;;;;;;5067793;28;20513;-85
2022/11/08 08:39:38;;;;;;;10.53;4.40;;;;;;;;;;5068754;28;20457;-85
2022/11/08 08:42:05;;;;;;;7.57;4.10;;;;;;;;;;5067461;28;20465;-84
2022/11/08 08:44:33;;;;;;;5.43;4.53;;;;;;;;;;5067435;28;20466;-87
2022/11/08 08:47:00;;;;;;;4.90;3.97;;;;;;;;;;5066044;28;20425;-86
2022/11/08 08:49:28;;;;;;;7.70;4.47;;;;;;;;;;5065714;28;20469;-86
2022/11/08 08:51:55;;;;;;;10.13;5.03;;;;;;;;;;5067352;28;20512;-86
2022/11/08 08:54:22;;;;;;;7.63;4.77;;;;;;;;;;5065283;28;20539;-86
2022/11/08 08:56:51;;;;;;;6.20;3.87;;;;;;;;;;5066219;28;20993;-86
2022/11/08 08:59:20;;;;;;;6.60;4.20;;;11.50;99.90;;;;;;5067876;28;20446;-86
2022/11/08 09:01:47;;;;;;;4.93;4.33;;;11.50;99.90;;;;;;5077561;28;20424;-85
2022/11/08 09:04:13;;;;;;;5.20;3.77;;;11.60;99.90;;;;;;5077731;28;20445;-84
2022/11/08 09:06:40;;;;;;;5.73;4.30;;;11.70;99.90;;;;;;5073608;28;20929;-86
2022/11/08 09:09:07;;;;;;;4.57;4.07;;;11.70;99.90;;;;;;5066668;28;20859;-86
2022/11/08 09:11:34;;;;;;;7.57;3.80;;;11.80;99.90;;;;;;5065447;28;20976;-86
2022/11/08 09:14:14;;;;;;;4.80;3.90;;;11.90;99.90;;;;;;5066194;28;20481;-86
2022/11/08 09:16:41;;;;;;;8.57;3.80;;;;;;;;;;5066712;28;20429;-86
2022/11/08 09:19:08;;;;;;;8.90;4.00;;;;;;;;;;5066202;28;20420;-86
2022/11/08 09:21:38;;;;;;;9.23;3.40;;;;;;;;;;5059253;28;20465;-85
2022/11/08 09:24:05;;;;;;;5.60;3.17;;;12.10;99.90;;;;;;5061665;28;20423;-85
2022/11/08 09:26:31;;;;;;;4.57;2.70;;;12.20;99.90;;;;;;5076432;28;20437;-84
2022/11/08 09:29:00;;;;;;;6.47;3.70;;;12.20;99.90;;;;;;5081384;28;20445;-82
2022/11/08 09:31:28;;;;;;;6.43;3.90;;;12.30;99.90;;;;;;5081200;28;20513;-82
2022/11/08 09:33:54;;;;;;;5.40;3.00;;;12.30;99.90;;;;;;5074914;28;20476;-86
2022/11/08 09:36:21;;;;;;;3.10;2.70;;;12.10;99.90;;;;;;5074639;28;20448;-86
2022/11/08 09:38:48;;;;;;;4.80;3.80;;;12.80;99.90;;;;;;5072756;28;20434;-86
2022/11/08 09:41:43;;;;;;;15.40;6.07;;;12.50;99.90;;;;;;5068224;28;20481;-86
2022/11/08 09:44:34;;;;;;;6.33;3.80;;;12.60;99.90;;;;;;5064961;28;20544;-86
2022/11/08 09:47:11;;;;;;;3.00;2.80;;;12.60;99.90;;;;;;5068283;28;20446;-86
2022/11/08 09:49:44;;;;;;;4.20;2.90;;;12.40;99.90;;;;;;5068474;28;20426;-86
2022/11/08 09:52:16;;;;;;;7.43;3.53;;;12.60;99.90;;;;;;5068470;28;20451;-86
2022/11/08 09:54:48;;;;;;;4.67;3.20;;;12.70;99.90;;;;;;5067928;28;20560;-86
2022/11/08 09:57:20;;;;;;;2.93;2.63;;;12.90;99.90;;;;;;5068919;28;20418;-86
2022/11/08 09:59:50;;;;;;;5.03;3.47;;;12.90;99.90;;;;;;5070259;28;20428;-85
2022/11/08 10:02:21;;;;;;;8.67;3.50;;;13.10;99.90;;;;;;5068664;28;20458;-86
2022/11/08 10:04:53;;;;;;;12.00;7.40;;;12.90;99.90;;;;;;5067076;28;20440;-86
2022/11/08 10:07:34;;;;;;;8.63;4.63;;;13.20;42.70;;;;;;5062221;28;20438;-86
2022/11/08 10:10:37;;;;;;;3.80;3.40;;;13.30;52.60;;;;;;5064924;28;20486;-85
2022/11/08 10:13:17;;;;;;;6.23;3.60;;;13.30;1.00;;;;;;5064559;28;20502;-85
2022/11/08 10:19:41;;;;;;;5.50;3.73;;;13.60;1.00;;;;;;5049371;28;20430;-85
2022/11/08 10:22:18;;;;;;;7.07;3.70;;;13.70;1.00;;;;;;5063892;28;20437;-85
2022/11/08 10:24:52;;;;;;;4.23;2.77;;;13.80;99.90;;;;;;5063870;28;20430;-85
2022/11/08 10:27:29;;;;;;;6.57;2.77;;;13.70;99.90;;;;;;5061483;28;20441;-85
2022/11/08 10:30:01;;;;;;;2.73;2.47;;;13.80;1.00;;;;;;5062969;28;20486;-85
2022/11/08 10:32:30;;;;;;;4.37;3.03;;;14.20;1.00;;;;;;5063403;28;20953;-85
2022/11/08 10:35:08;;;;;;;2.93;2.53;;;13.80;99.90;;;;;;5063222;28;20481;-86
2022/11/08 10:37:35;;;;;;;3.53;2.90;;;13.90;1.00;;;;;;5063201;28;20438;-85
2022/11/08 10:40:13;;;;;;;4.70;3.13;;;13.90;1.00;;;;;;5061398;28;20445;-85
2022/11/08 10:42:45;;;;;;;3.23;2.67;;;14.00;1.00;;;;;;5061803;28;20448;-86
2022/11/08 10:45:12;;;;;;;3.83;2.87;;;;;;;;;;5062172;28;20434;-85
2022/11/08 10:47:40;;;;;;;3.50;2.67;;;14.10;99.90;;;;;;5065421;28;20464;-86
2022/11/08 10:50:14;;;;;;;3.43;3.20;;;14.50;99.90;;;;;;5062802;28;20456;-86
2022/11/08 10:52:45;;;;;;;5.10;2.80;;;14.10;99.90;;;;;;5062916;28;20881;-86
2022/11/08 10:55:25;;;;;;;4.20;2.73;;;14.20;99.90;;;;;;5064996;28;20466;-86
2022/11/08 10:57:52;;;;;;;9.93;2.83;;;14.20;1.00;;;;;;5063487;28;20434;-87
2022/11/08 11:00:30;;;;;;;4.47;3.50;;;14.40;99.90;;;;;;5068793;28;20426;-87
2022/11/08 11:02:59;;;;;;;3.97;2.77;;;14.30;99.90;;;;;;5076795;28;20434;-86
2022/11/08 11:05:33;;;;;;;4.80;2.87;;;14.30;1.00;;;;;;5064968;28;20464;-86
2022/11/08 11:08:03;;;;;;;10.97;2.87;;;14.30;1.00;;;;;;5069541;28;20404;-87
2022/11/08 11:10:32;;;;;;;3.00;2.70;;;14.20;99.90;;;;;;5072435;28;20414;-86
2022/11/08 11:13:05;;;;;;;4.47;3.23;;;13.90;99.90;;;;;;5074041;28;20452;-86
2022/11/08 11:15:37;;;;;;;3.47;2.70;;;14.30;99.90;;;;;;5076370;28;20470;-86
2022/11/08 11:18:16;;;;;;;6.10;3.20;;;14.30;1.00;;;;;;5075547;28;20489;-86
2022/11/08 11:21:01;;;;;;;5.33;3.43;;;14.30;99.90;;;;;;5067573;28;20480;-86
2022/11/08 11:23:43;;;;;;;4.17;2.83;;;14.30;1.00;;;;;;5065876;28;20492;-87
2022/11/08 11:26:20;;;;;;;3.60;2.30;;;14.30;99.90;;;;;;5065035;28;20400;-86
2022/11/08 11:29:20;;;;;;;5.27;2.67;;;14.40;99.90;;;;;;5063443;28;20438;-86
2022/11/08 11:31:49;;;;;;;5.27;2.50;;;14.70;1.00;;;;;;5063414;28;20558;-86
2022/11/08 11:34:42;;;;;;;2.93;2.43;;;14.40;99.90;;;;;;5067990;28;20488;-85
2022/11/08 11:37:25;;;;;;;2.77;2.27;;;14.40;1.00;;;;;;5070465;28;20446;-84
2022/11/08 11:40:05;;;;;;;9.77;3.13;;;14.40;99.90;;;;;;5078975;28;20516;-83
2022/11/08 11:42:37;;;;;;;4.83;2.40;;;14.40;1.00;;;;;;5077730;28;20420;-85
2022/11/08 11:45:16;;;;;;;7.80;2.80;;;14.50;16.40;;;;;;5077963;28;20453;-86
2022/11/08 11:47:46;;;;;;;5.10;2.63;;;14.50;28.80;;;;;;5076314;28;20456;-86
2022/11/08 11:50:29;;;;;;;6.33;2.67;;;14.50;1.00;;;;;;5073569;28;20434;-85
2022/11/08 11:52:59;;;;;;;6.40;2.63;;;14.60;99.90;;;;;;5077452;28;20414;-86
2022/11/08 11:55:32;;;;;;;2.47;2.27;;;14.60;1.00;;;;;;5078008;28;20475;-86
2022/11/08 11:58:18;;;;;;;8.10;2.70;;;14.60;99.90;;;;;;5078248;28;20421;-85
2022/11/08 12:00:51;;;;;;;3.70;2.50;;;14.60;99.90;;;;;;5077256;28;20465;-85
2022/11/08 12:03:33;;;;;;;2.63;2.03;;;14.90;1.00;;;;;;5074503;28;20434;-85
2022/11/08 12:06:14;;;;;;;5.93;2.23;;;14.90;99.90;;;;;;5074813;28;20445;-86
2022/11/08 12:08:57;;;;;;;7.10;2.40;;;14.90;99.90;;;;;;5073620;28;20391;-84
2022/11/08 12:11:45;;;;;;;5.67;2.50;;;15.40;1.00;;;;;;5065170;28;20465;-86
2022/11/08 12:14:42;;;;;;;2.90;2.17;;;15.00;99.90;;;;;;5063503;28;20445;-86
2022/11/08 12:17:34;;;;;;;3.70;2.13;;;15.10;99.90;;;;;;5043323;28;20458;-86
2022/11/08 12:20:20;;;;;;;5.10;2.60;;;15.10;99.90;;;;;;5062995;28;20446;-86
2022/11/08 12:23:01;;;;;;;5.10;2.60;;;15.10;99.90;;;;;;5062584;28;20434;-85
2022/11/08 12:25:36;;;;;;;5.00;2.93;;;15.20;99.90;;;;;;5062711;28;20908;-86
2022/11/08 12:28:19;;;;;;;6.30;3.70;;;14.00;99.90;;;;;;5063702;28;20997;-86
2022/11/08 12:30:55;;;;;;;3.60;2.80;;;15.20;99.90;;;;;;5062235;28;20440;-86
2022/11/08 12:33:34;;;;;;;5.73;3.13;;;15.20;99.90;;;;;;5061242;28;20445;-86
2022/11/08 12:36:11;;;;;;;5.63;4.10;;;15.20;99.90;;;;;;5061976;28;20474;-86
2022/11/08 12:38:48;;;;;;;3.07;2.43;;;15.20;99.90;;;;;;5060724;28;20438;-85
2022/11/08 12:41:23;;;;;;;4.63;3.27;;;15.30;99.90;;;;;;5062107;28;20484;-86
2022/11/08 12:44:18;;;;;;;5.30;2.50;;;15.40;99.90;;;;;;5062826;28;20412;-85
2022/11/08 12:47:02;;;;;;;5.50;3.00;;;15.30;99.90;;;;;;5060964;28;20426;-85
2022/11/08 12:49:37;;;;;;;3.03;2.70;;;15.50;95.50;;;;;;5062346;28;20429;-86
2022/11/08 12:52:13;;;;;;;2.90;2.50;;;15.60;99.90;;;;;;5062098;28;20484;-86
2022/11/08 12:54:43;;;;;;;3.47;2.00;;;15.50;76.10;;;;;;5062137;28;20470;-86
2022/11/08 12:57:13;;;;;;;10.00;2.20;;;15.50;19.20;;;;;;5062686;28;20955;-85
2022/11/08 12:59:44;;;;;;;2.23;2.03;;;15.50;78.10;;;;;;5064400;28;20430;-86
2022/11/08 13:02:18;;;;;;;4.77;2.53;;;15.40;99.90;;;;;;5068290;28;20510;-85
2022/11/08 13:04:55;;;;;;;5.07;2.00;;;15.60;4.30;;;;;;5066204;28;20430;-86
2022/11/08 13:07:39;;;;;;;2.20;2.00;;;15.50;52.90;;;;;;5066160;28;20448;-86
2022/11/08 13:10:19;;;;;;;4.80;1.80;;;15.50;30.20;;;;;;5066256;28;20438;-87
2022/11/08 13:13:02;;;;;;;4.60;2.27;;;15.50;54.90;;;;;;5065693;28;20468;-86
2022/11/08 13:15:29;;;;;;;2.40;2.20;;;;;;;;;;5065055;28;20473;-86
2022/11/08 13:18:32;;;;;;;4.33;2.00;;;15.20;99.90;;;;;;5065564;28;20445;-86
2022/11/08 13:20:59;;;;;;;6.37;2.50;;;;;;;;;;5066878;28;20465;-86
2022/11/08 13:23:29;;;;;;;2.67;2.13;;;15.30;1.00;;;;;;5075616;28;20442;-84
2022/11/08 13:26:12;;;;;;;2.50;2.30;;;15.20;99.90;;;;;;5070873;28;20448;-86
2022/11/08 13:28:44;;;;;;;6.27;2.90;;;15.50;99.90;;;;;;5079493;28;20395;-84
2022/11/08 13:31:31;;;;;;;5.57;3.00;;;15.20;94.50;;;;;;5081247;28;20511;-85
2022/11/08 13:34:21;;;;;;;8.70;2.50;;;15.00;99.90;;;;;;5079235;28;20498;-87
2022/11/08 13:37:19;;;;;;;10.83;2.43;;;15.20;94.70;;;;;;5067002;28;20492;-86
2022/11/08 13:40:07;;;;;;;4.00;3.10;;;15.10;99.90;;;;;;5079813;28;20410;-84
2022/11/08 13:42:54;;;;;;;3.50;2.00;;;15.40;1.00;;;;;;5080613;28;20445;-85
2022/11/08 13:45:32;;;;;;;2.40;1.83;;;15.10;99.90;;;;;;5079125;28;20426;-86
2022/11/08 13:48:05;;;;;;;3.23;2.13;;;15.10;99.90;;;;;;5072113;28;20446;-85
2022/11/08 13:50:51;;;;;;;4.80;2.33;;;15.00;99.90;;;;;;5065486;28;20434;-86
2022/11/08 13:53:53;;;;;;;2.60;2.40;;;15.00;99.90;;;;;;5073996;28;20434;-85
2022/11/08 13:56:42;;;;;;;5.23;2.00;;;15.30;1.00;;;;;;5080782;28;20471;-83
2022/11/08 13:59:54;;;;;;;3.23;2.30;;;15.50;1.00;;;;;;5072371;28;20450;-86
2022/11/08 14:02:39;;;;;;;2.57;2.10;;;15.00;99.90;;;;;;4984373;28;20472;-87
2022/11/08 14:05:22;;;;;;;8.03;3.13;;;15.20;1.00;;;;;;5063294;28;20967;-86
2022/11/08 14:08:08;;;;;;;7.73;2.63;;;15.00;99.90;;;;;;5064368;28;20442;-85
2022/11/08 14:10:39;;;;;;;6.37;3.13;;;14.70;1.00;;;;;;5063449;28;20433;-86